Liberty, ME

10:10 PM EST on March 02, 2015 (GMT -0500)
APRSWXNET Liberty ME US | Change Station
CLOSE
Current Station
Personal Weather Station
Location: Liberty, ME
Elevation: 812 ft
Nearby Weather Stations

Elev 812 ft 44.36 °N, 69.33 °W | Updated 258 days ago

Clear
Clear
11 °F
Feels Like -4 °F
N
11
Wind Variable Wind from NW
Gusts mph

Today
High -- | Low -- °F
--% Chance of Precip.
Yesterday
High -- | Low -- °F
Precip. -- in
6:13 AM 5:26 PM
Waxing Gibbous, 94% visible
Pressure 30.05 in
Visibility -9999.0 miles
Clouds Few 5000 ft
Windchill -4 °F
Dew Point -6 °F
Humidity 45%
Rainfall 0.00 in
Snow Depth Not available.
UV 0 out of 12
Pollen .30 out of 12
Air Quality Not available.
Flu Activity Not available.
METAR KWVL 030255Z 31010G27KT FEW050 M07/M18 A3005 RMK AO1 52037

More Conditions Fewer Conditions

Pressure 30.05 in
Visibility -9999.0 miles
Clouds Few 5000 ft
Windchill -4 °F
Dew Point -6 °F
Humidity 45%
Rainfall 0.00 in
Snow Depth Not available.
UV 0 out of 12
Pollen .30 out of 12
Air Quality Not available.
Flu Activity Not available.
METAR KWVL 030255Z 31010G27KT FEW050 M07/M18 A3005 RMK AO1 52037

More Conditions Fewer Conditions

10-Day Weather Forecast

Almanac

Astronomy

Mar. 02, 2015 Rise Set
Actual Time
Civil Twilight
Nautical Twilight
Astronomical Twilight
Moon
Length of Visible Light
Length of Day
Tomorrow will be .
, % of the Moon is Illuminated

Today's Extremes

State Highs State Lows

Community

WunderPhotos

Upload Photos

1,802,057 photos uploaded!

WunderBlogs® & News

Nearby

Air Quality

  Air Quality AQ Index Pollutant
Not available.

Snow Depth

Station Depth Elevation

Earthquake Activity

City Distance Mag. Time & Date
Minimum magnitude displayed is 2.5.

Coastal Water Temperatures

Place Temperature

Nearby Weather Stations